createdAt,value
2023-01-13T00:00:29.278Z,9.38
2023-01-13T00:01:29.324Z,9.35
2023-01-13T00:02:29.234Z,9.38
2023-01-13T00:03:29.215Z,9.40
2023-01-13T00:04:29.202Z,9.44
2023-01-13T00:05:29.147Z,9.40
2023-01-13T00:06:29.167Z,9.40
2023-01-13T00:07:29.113Z,9.31
2023-01-13T00:08:29.100Z,9.41
2023-01-13T00:09:29.149Z,9.40
2023-01-13T00:10:29.077Z,9.32
2023-01-13T00:11:29.098Z,9.38
2023-01-13T00:12:29.035Z,9.34
2023-01-13T00:13:29.017Z,9.31
2023-01-13T00:14:29.000Z,9.37
2023-01-13T00:15:29.007Z,9.17
2023-01-13T00:16:28.994Z,9.22
2023-01-13T00:17:28.975Z,9.30
2023-01-13T00:18:28.941Z,9.42
2023-01-13T00:19:28.925Z,9.27
2023-01-13T00:20:28.908Z,9.40
2023-01-13T00:21:28.936Z,9.41
2023-01-13T00:22:28.873Z,9.31
2023-01-13T00:23:28.853Z,9.32
2023-01-13T00:24:28.848Z,9.37
2023-01-13T00:25:28.849Z,9.32
2023-01-13T00:26:28.827Z,9.32
2023-01-13T00:27:28.785Z,9.30
2023-01-13T00:28:28.794Z,9.42
2023-01-13T00:29:28.758Z,9.40
2023-01-13T00:30:28.744Z,9.34
2023-01-13T00:31:28.787Z,9.41
2023-01-13T00:32:28.708Z,9.30
2023-01-13T00:33:28.724Z,9.31
2023-01-13T00:34:28.668Z,9.32
2023-01-13T00:35:28.656Z,9.23
2023-01-13T00:36:28.683Z,9.22
2023-01-13T00:37:28.628Z,9.20
2023-01-13T00:38:28.619Z,9.19
2023-01-13T00:39:28.586Z,9.24
2023-01-13T00:40:28.558Z,9.17
2023-01-13T00:41:28.600Z,9.24
2023-01-13T00:42:28.536Z,9.17
2023-01-13T00:43:28.517Z,9.16
2023-01-13T00:44:28.497Z,9.20
2023-01-13T00:45:28.474Z,9.19
2023-01-13T00:46:28.583Z,9.19
2023-01-13T00:47:28.429Z,9.20
2023-01-13T00:48:28.445Z,9.26
2023-01-13T00:49:28.405Z,9.17
2023-01-13T00:50:28.405Z,9.22
2023-01-13T00:51:28.409Z,9.19
2023-01-13T00:52:28.393Z,9.24
2023-01-13T00:53:28.348Z,9.22
2023-01-13T00:54:28.326Z,9.17
2023-01-13T00:55:28.312Z,9.23
2023-01-13T00:56:39.682Z,9.19
2023-01-13T00:57:30.268Z,9.23
2023-01-13T00:58:28.324Z,9.27
2023-01-13T00:59:28.255Z,9.20
2023-01-13T01:00:28.244Z,9.22
2023-01-13T01:01:28.323Z,9.19
2023-01-13T01:02:28.296Z,9.22
2023-01-13T01:03:28.188Z,9.27
2023-01-13T01:04:28.211Z,9.15
2023-01-13T01:05:28.166Z,9.24
2023-01-13T01:06:28.174Z,9.19
2023-01-13T01:07:28.112Z,9.16
2023-01-13T01:08:28.091Z,9.08
2023-01-13T01:09:28.078Z,9.10
2023-01-13T01:10:28.055Z,9.10
2023-01-13T01:11:28.063Z,9.13
2023-01-13T01:12:28.026Z,9.19
2023-01-13T01:13:28.010Z,9.20
2023-01-13T01:14:27.981Z,9.30
2023-01-13T01:15:27.999Z,9.22
2023-01-13T01:16:28.057Z,9.26
2023-01-13T01:17:27.929Z,9.24
2023-01-13T01:18:27.935Z,9.22
2023-01-13T01:19:27.898Z,9.10
2023-01-13T01:20:27.875Z,9.12
2023-01-13T01:21:27.929Z,9.13
2023-01-13T01:22:27.851Z,9.10
2023-01-13T01:23:27.830Z,9.00
2023-01-13T01:24:27.812Z,9.08
2023-01-13T01:25:27.826Z,9.04
2023-01-13T01:26:27.897Z,9.01
2023-01-13T01:27:27.791Z,9.00
2023-01-13T01:28:27.743Z,9.12
2023-01-13T01:29:27.731Z,8.98
2023-01-13T01:30:27.707Z,8.96
2023-01-13T01:31:27.792Z,9.15
2023-01-13T01:32:27.683Z,9.10
2023-01-13T01:33:27.658Z,9.04
2023-01-13T01:34:27.627Z,9.15
2023-01-13T01:35:27.629Z,9.24
2023-01-13T01:36:27.652Z,9.22
2023-01-13T01:37:27.601Z,9.19
2023-01-13T01:38:27.585Z,9.13
2023-01-13T01:39:27.565Z,9.13
2023-01-13T01:40:27.549Z,9.16
2023-01-13T01:41:27.554Z,9.13
2023-01-13T01:42:27.505Z,9.06
2023-01-13T01:43:27.502Z,9.13
2023-01-13T01:44:27.488Z,9.04
2023-01-13T01:45:27.484Z,9.20
2023-01-13T01:46:27.567Z,9.16
2023-01-13T01:47:27.429Z,9.17
2023-01-13T01:48:27.421Z,9.08
2023-01-13T01:49:27.454Z,9.08
2023-01-13T01:50:27.386Z,9.15
2023-01-13T01:51:27.400Z,9.08
2023-01-13T01:52:27.353Z,9.08
2023-01-13T01:53:27.337Z,9.01
2023-01-13T01:54:27.333Z,8.97
2023-01-13T01:55:27.313Z,8.91
2023-01-13T01:56:27.326Z,8.98
2023-01-13T01:57:27.274Z,8.97
2023-01-13T01:58:27.256Z,9.08
2023-01-13T01:59:27.274Z,8.97
2023-01-13T02:00:27.224Z,9.10
2023-01-13T02:01:27.311Z,9.01
2023-01-13T02:02:28.226Z,9.08
2023-01-13T02:03:27.194Z,9.04
2023-01-13T02:04:28.172Z,9.06
2023-01-13T02:05:27.133Z,9.03
2023-01-13T02:06:27.153Z,8.97
2023-01-13T02:07:27.139Z,9.10
2023-01-13T02:08:27.092Z,9.10
2023-01-13T02:09:27.070Z,9.17
2023-01-13T02:10:27.058Z,9.13
2023-01-13T02:11:27.064Z,9.17
2023-01-13T02:12:27.014Z,9.22
2023-01-13T02:13:27.008Z,9.24
2023-01-13T02:14:26.980Z,9.20
2023-01-13T02:15:26.962Z,9.26
2023-01-13T02:16:27.008Z,9.22
2023-01-13T02:17:26.937Z,9.24
2023-01-13T02:18:26.913Z,9.20
2023-01-13T02:19:26.891Z,9.32
2023-01-13T02:20:26.950Z,9.26
2023-01-13T02:21:26.885Z,9.23
2023-01-13T02:22:26.838Z,9.26
2023-01-13T02:23:26.817Z,9.35
2023-01-13T02:24:26.815Z,9.26
2023-01-13T02:25:26.791Z,9.26
2023-01-13T02:26:26.832Z,9.30
2023-01-13T02:27:26.773Z,9.23
2023-01-13T02:28:26.797Z,9.41
2023-01-13T02:29:26.733Z,9.41
2023-01-13T02:30:26.704Z,9.38
2023-01-13T02:31:26.828Z,9.31
2023-01-13T02:32:26.674Z,9.40
2023-01-13T02:33:26.672Z,9.35
2023-01-13T02:34:26.631Z,9.32
2023-01-13T02:35:26.638Z,9.34
2023-01-13T02:36:26.598Z,9.41
2023-01-13T02:37:26.627Z,9.40
2023-01-13T02:38:26.565Z,9.34
2023-01-13T02:39:26.580Z,9.22
2023-01-13T02:40:26.552Z,9.17
2023-01-13T02:41:26.528Z,9.17
2023-01-13T02:42:26.548Z,9.30
2023-01-13T02:43:26.494Z,9.20
2023-01-13T02:44:26.471Z,9.19
2023-01-13T02:45:26.491Z,9.27
2023-01-13T02:46:26.423Z,9.20
2023-01-13T02:47:27.448Z,9.23
2023-01-13T02:48:26.416Z,9.24
2023-01-13T02:49:26.414Z,9.13
2023-01-13T02:50:26.363Z,9.19
2023-01-13T02:51:26.354Z,9.23
2023-01-13T02:52:26.368Z,9.15
2023-01-13T02:53:26.317Z,9.20
2023-01-13T02:54:26.304Z,9.19
2023-01-13T02:55:26.287Z,9.17
2023-01-13T02:56:26.327Z,9.30
2023-01-13T02:57:26.290Z,9.30
2023-01-13T02:58:26.231Z,9.24
2023-01-13T02:59:26.239Z,9.22
2023-01-13T03:00:26.092Z,9.23
2023-01-13T03:01:26.215Z,9.26
2023-01-13T03:02:26.175Z,9.24
2023-01-13T03:03:26.037Z,9.31
2023-01-13T03:04:26.014Z,9.22
2023-01-13T03:05:25.999Z,9.17
2023-01-13T03:06:25.990Z,9.15
2023-01-13T03:07:26.005Z,8.86
2023-01-13T03:08:25.949Z,8.93
2023-01-13T03:09:25.932Z,8.83
2023-01-13T03:10:25.976Z,8.86
2023-01-13T03:11:25.939Z,8.70
2023-01-13T03:12:25.911Z,8.83
2023-01-13T03:13:25.869Z,8.79
2023-01-13T03:14:25.845Z,8.76
2023-01-13T03:15:25.833Z,8.79
2023-01-13T03:16:25.831Z,8.73
2023-01-13T03:17:25.831Z,8.57
2023-01-13T03:18:25.804Z,8.70
2023-01-13T03:19:25.780Z,8.68
2023-01-13T03:20:25.756Z,8.50
2023-01-13T03:21:25.768Z,8.55
2023-01-13T03:22:25.875Z,8.58
2023-01-13T03:23:25.708Z,8.57
2023-01-13T03:24:25.690Z,8.61
2023-01-13T03:25:25.686Z,8.64
2023-01-13T03:26:25.648Z,8.60
2023-01-13T03:27:25.671Z,8.61
2023-01-13T03:28:25.618Z,8.63
2023-01-13T03:29:25.619Z,8.63
2023-01-13T03:30:25.620Z,8.57
2023-01-13T03:31:25.580Z,8.49
2023-01-13T03:32:25.605Z,8.46
2023-01-13T03:33:25.538Z,8.47
2023-01-13T03:34:25.526Z,8.47
2023-01-13T03:35:25.504Z,8.52
2023-01-13T03:36:25.501Z,8.40
2023-01-13T03:37:25.508Z,8.39
2023-01-13T03:38:25.465Z,8.34
2023-01-13T03:39:25.464Z,8.34
2023-01-13T03:40:25.415Z,8.22
2023-01-13T03:41:25.415Z,8.24
2023-01-13T03:42:25.425Z,8.20
2023-01-13T03:43:25.373Z,8.17
2023-01-13T03:44:25.370Z,8.17
2023-01-13T03:45:25.362Z,8.12
2023-01-13T03:46:25.327Z,8.17
2023-01-13T03:47:25.355Z,8.28
2023-01-13T03:48:25.299Z,8.21
2023-01-13T03:49:25.279Z,8.21
2023-01-13T03:50:25.265Z,8.24
2023-01-13T03:51:25.244Z,8.13
2023-01-13T03:52:25.252Z,8.18
2023-01-13T03:53:25.208Z,8.20
2023-01-13T03:54:25.207Z,8.12
2023-01-13T03:55:25.172Z,8.20
2023-01-13T03:56:25.154Z,8.00
2023-01-13T03:57:25.181Z,8.10
2023-01-13T03:58:25.124Z,8.12
2023-01-13T03:59:25.111Z,8.12
2023-01-13T04:00:25.098Z,8.07
2023-01-13T04:01:25.167Z,8.12
2023-01-13T04:02:25.083Z,8.14
2023-01-13T04:03:25.057Z,8.21
2023-01-13T04:04:25.027Z,8.07
2023-01-13T04:05:24.993Z,8.03
2023-01-13T04:06:24.992Z,7.95
2023-01-13T04:07:25.019Z,7.85
2023-01-13T04:08:24.940Z,7.88
2023-01-13T04:09:24.924Z,7.76
2023-01-13T04:10:24.965Z,7.82
2023-01-13T04:11:24.911Z,7.76
2023-01-13T04:12:24.888Z,7.76
2023-01-13T04:13:24.920Z,7.77
2023-01-13T04:14:24.853Z,7.81
2023-01-13T04:15:24.910Z,7.71
2023-01-13T04:16:24.816Z,7.66
2023-01-13T04:17:24.810Z,7.57
2023-01-13T04:18:24.818Z,7.69
2023-01-13T04:19:24.773Z,7.54
2023-01-13T04:20:24.745Z,7.36
2023-01-13T04:21:24.724Z,7.39
2023-01-13T04:22:24.709Z,7.45
2023-01-13T04:23:24.739Z,7.44
2023-01-13T04:24:24.702Z,7.44
2023-01-13T04:25:24.658Z,7.51
2023-01-13T04:26:24.654Z,7.44
2023-01-13T04:27:24.632Z,7.50
2023-01-13T04:28:24.647Z,7.42
2023-01-13T04:29:24.608Z,7.36
2023-01-13T04:30:24.578Z,7.41
2023-01-13T04:31:24.722Z,7.39
2023-01-13T04:32:24.554Z,7.42
2023-01-13T04:33:24.551Z,7.42
2023-01-13T04:34:25.831Z,7.36
2023-01-13T04:35:24.498Z,7.37
2023-01-13T04:36:24.474Z,7.36
2023-01-13T04:37:24.462Z,7.32
2023-01-13T04:38:24.491Z,7.36
2023-01-13T04:39:24.437Z,7.29
2023-01-13T04:40:24.412Z,7.44
2023-01-13T04:41:24.404Z,7.37
2023-01-13T04:42:24.380Z,7.37
2023-01-13T04:43:24.400Z,7.37
2023-01-13T04:44:24.355Z,7.45
2023-01-13T04:45:24.390Z,7.41
2023-01-13T04:46:24.330Z,7.36
2023-01-13T04:47:24.289Z,7.36
2023-01-13T04:48:24.302Z,7.36
2023-01-13T04:49:24.360Z,7.18
2023-01-13T04:50:24.251Z,7.18
2023-01-13T04:51:24.218Z,7.18
2023-01-13T04:52:24.213Z,7.23
2023-01-13T04:53:24.216Z,7.18
2023-01-13T04:54:24.166Z,7.19
2023-01-13T04:55:24.162Z,7.12
2023-01-13T04:56:24.147Z,7.14
2023-01-13T04:57:24.132Z,7.07
2023-01-13T04:58:24.146Z,7.14
2023-01-13T04:59:24.091Z,7.15
2023-01-13T05:00:24.088Z,7.00
2023-01-13T05:01:24.187Z,7.14
2023-01-13T05:02:24.078Z,7.12
2023-01-13T05:03:24.041Z,7.11
2023-01-13T05:04:24.073Z,7.00
2023-01-13T05:05:23.982Z,7.15
2023-01-13T05:06:23.982Z,7.09
2023-01-13T05:07:23.963Z,7.09
2023-01-13T05:08:23.970Z,6.99
2023-01-13T05:09:23.926Z,6.99
2023-01-13T05:10:24.264Z,7.08
2023-01-13T05:11:24.890Z,7.00
2023-01-13T05:12:23.893Z,7.00
2023-01-13T05:13:23.895Z,7.01
2023-01-13T05:14:23.871Z,7.09
2023-01-13T05:15:23.815Z,7.15
2023-01-13T05:16:23.848Z,7.12
2023-01-13T05:17:23.789Z,6.96
2023-01-13T05:18:23.790Z,7.08
2023-01-13T05:19:23.810Z,7.01
2023-01-13T05:20:23.736Z,7.07
2023-01-13T05:21:23.733Z,6.99
2023-01-13T05:22:23.705Z,7.08
2023-01-13T05:23:23.745Z,6.99
2023-01-13T05:24:23.734Z,6.94
2023-01-13T05:25:23.679Z,7.05
2023-01-13T05:26:23.627Z,6.91
2023-01-13T05:27:24.620Z,6.97
2023-01-13T05:28:23.628Z,6.89
2023-01-13T05:29:23.585Z,6.99
2023-01-13T05:30:23.572Z,6.94
2023-01-13T05:31:23.595Z,6.91
2023-01-13T05:32:23.538Z,6.90
2023-01-13T05:33:23.562Z,6.89
2023-01-13T05:34:23.510Z,6.93
2023-01-13T05:35:23.501Z,6.89
2023-01-13T05:36:23.463Z,6.99
2023-01-13T05:37:23.480Z,6.90
2023-01-13T05:38:23.490Z,6.91
2023-01-13T05:39:23.422Z,6.86
2023-01-13T05:40:24.400Z,6.82
2023-01-13T05:41:23.385Z,6.94
2023-01-13T05:42:23.366Z,6.93
2023-01-13T05:43:23.375Z,7.01
2023-01-13T05:44:23.328Z,6.91
2023-01-13T05:45:23.308Z,6.89
2023-01-13T05:46:23.315Z,6.93
2023-01-13T05:47:23.401Z,6.93
2023-01-13T05:48:23.309Z,6.90
2023-01-13T05:49:23.258Z,6.82
2023-01-13T05:50:23.248Z,6.91
2023-01-13T05:51:23.207Z,6.89
2023-01-13T05:52:23.202Z,6.90
2023-01-13T05:53:50.656Z,6.89
2023-01-13T05:54:23.169Z,6.94
2023-01-13T05:55:23.146Z,6.86
2023-01-13T05:56:23.155Z,6.94
2023-01-13T05:57:23.167Z,6.93
2023-01-13T05:58:23.137Z,6.97
2023-01-13T05:59:23.075Z,6.94
2023-01-13T06:00:23.064Z,7.00
2023-01-13T06:01:23.131Z,6.91
2023-01-13T06:02:23.034Z,6.87
2023-01-13T06:03:23.048Z,6.81
2023-01-13T06:04:23.045Z,6.83
2023-01-13T06:05:23.028Z,6.81
2023-01-13T06:06:22.966Z,6.72
2023-01-13T06:07:22.945Z,6.72
2023-01-13T06:08:23.012Z,6.72
2023-01-13T06:09:22.914Z,6.76
2023-01-13T06:10:22.880Z,6.78
2023-01-13T06:11:22.873Z,6.68
2023-01-13T06:12:22.875Z,6.68
2023-01-13T06:13:22.894Z,6.63
2023-01-13T06:14:22.836Z,6.72
2023-01-13T06:15:22.816Z,6.72
2023-01-13T06:16:22.923Z,6.58
2023-01-13T06:17:22.779Z,6.60
2023-01-13T06:18:22.802Z,6.53
2023-01-13T06:19:22.752Z,6.60
2023-01-13T06:20:22.743Z,6.63
2023-01-13T06:21:22.728Z,6.63
2023-01-13T06:22:22.697Z,6.55
2023-01-13T06:23:22.723Z,6.53
2023-01-13T06:24:22.661Z,6.61
2023-01-13T06:25:22.634Z,6.51
2023-01-13T06:26:22.645Z,6.46
2023-01-13T06:27:22.622Z,6.45
2023-01-13T06:28:22.651Z,6.54
2023-01-13T06:29:22.612Z,6.48
2023-01-13T06:30:22.556Z,6.48
2023-01-13T06:31:22.626Z,6.58
2023-01-13T06:32:22.562Z,6.51
2023-01-13T06:33:22.551Z,6.51
2023-01-13T06:34:22.485Z,6.57
2023-01-13T06:35:22.489Z,6.53
2023-01-13T06:36:22.534Z,6.43
2023-01-13T06:37:22.462Z,6.50
2023-01-13T06:38:22.468Z,6.46
2023-01-13T06:39:22.428Z,6.32
2023-01-13T06:40:22.378Z,6.27
2023-01-13T06:41:22.370Z,6.24
2023-01-13T06:42:22.351Z,6.19
2023-01-13T06:43:22.335Z,6.28
2023-01-13T06:44:22.345Z,6.32
2023-01-13T06:45:22.299Z,6.30
2023-01-13T06:46:22.335Z,6.25
2023-01-13T06:47:22.279Z,6.32
2023-01-13T06:48:22.258Z,6.28
2023-01-13T06:49:22.267Z,6.28
2023-01-13T06:50:22.218Z,6.30
2023-01-13T06:51:22.210Z,6.20
2023-01-13T06:52:22.189Z,6.19
2023-01-13T06:53:22.154Z,6.20
2023-01-13T06:54:22.182Z,6.19
2023-01-13T06:55:22.132Z,6.14
2023-01-13T06:56:22.118Z,6.21
2023-01-13T06:57:22.101Z,6.17
2023-01-13T06:58:22.072Z,6.16
2023-01-13T06:59:22.085Z,6.10
2023-01-13T07:00:22.043Z,6.08
2023-01-13T07:01:22.095Z,6.06
2023-01-13T07:02:22.147Z,6.01
2023-01-13T07:03:22.017Z,6.08
2023-01-13T07:04:22.012Z,6.01
2023-01-13T07:05:21.975Z,6.11
2023-01-13T07:06:21.947Z,6.11
2023-01-13T07:07:21.972Z,6.25
2023-01-13T07:08:21.909Z,6.19
2023-01-13T07:09:21.945Z,6.25
2023-01-13T07:10:21.916Z,6.36
2023-01-13T07:11:21.857Z,6.30
2023-01-13T07:12:21.846Z,6.36
2023-01-13T07:13:21.831Z,6.36
2023-01-13T07:14:21.846Z,6.36
2023-01-13T07:15:21.841Z,6.45
2023-01-13T07:16:21.824Z,6.40
2023-01-13T07:17:21.756Z,6.45
2023-01-13T07:18:21.790Z,6.35
2023-01-13T07:19:22.244Z,6.36
2023-01-13T07:20:22.713Z,6.46
2023-01-13T07:21:21.776Z,6.42
2023-01-13T07:22:21.671Z,6.45
2023-01-13T07:23:21.648Z,6.46
2023-01-13T07:24:21.666Z,6.33
2023-01-13T07:25:21.655Z,6.43
2023-01-13T07:26:21.600Z,6.38
2023-01-13T07:27:21.594Z,6.36
2023-01-13T07:28:21.566Z,6.43
2023-01-13T07:29:21.584Z,6.43
2023-01-13T07:30:21.572Z,6.43
2023-01-13T07:31:21.577Z,6.35
2023-01-13T07:32:21.519Z,6.53
2023-01-13T07:33:21.482Z,6.42
2023-01-13T07:34:21.503Z,6.48
2023-01-13T07:35:21.457Z,6.48
2023-01-13T07:36:21.518Z,6.40
2023-01-13T07:37:21.420Z,6.53
2023-01-13T07:38:21.390Z,6.51
2023-01-13T07:39:21.404Z,6.57
2023-01-13T07:40:21.364Z,6.51
2023-01-13T07:41:21.352Z,6.63
2023-01-13T07:42:21.336Z,6.50
2023-01-13T07:43:21.314Z,6.45
2023-01-13T07:44:21.321Z,6.63
2023-01-13T07:45:21.279Z,6.51
2023-01-13T07:46:21.287Z,6.69
2023-01-13T07:47:21.242Z,6.51
2023-01-13T07:48:21.240Z,6.58
2023-01-13T07:49:21.248Z,6.54
2023-01-13T07:50:21.198Z,6.60
2023-01-13T07:51:21.168Z,6.54
2023-01-13T07:52:21.161Z,6.57
2023-01-13T07:53:21.138Z,6.63
2023-01-13T07:54:28.392Z,6.63
2023-01-13T07:55:23.099Z,6.65
2023-01-13T07:56:21.104Z,6.64
2023-01-13T07:57:21.082Z,6.73
2023-01-13T07:58:21.071Z,6.68
2023-01-13T07:59:21.142Z,6.72
2023-01-13T08:00:21.039Z,6.68
2023-01-13T08:01:21.085Z,6.58
2023-01-13T08:02:21.216Z,6.72
2023-01-13T08:03:20.986Z,6.78
2023-01-13T08:04:20.993Z,6.81
2023-01-13T08:05:20.944Z,6.78
2023-01-13T08:06:20.925Z,6.79
2023-01-13T08:07:20.907Z,6.83
2023-01-13T08:08:20.933Z,7.04
2023-01-13T08:09:20.904Z,7.18
2023-01-13T08:10:20.846Z,7.29
2023-01-13T08:11:23.411Z,7.42
2023-01-13T08:12:21.831Z,7.77
2023-01-13T08:13:20.818Z,7.71
2023-01-13T08:14:20.841Z,7.91
2023-01-13T08:15:20.760Z,7.82
2023-01-13T08:16:20.797Z,7.77
2023-01-13T08:17:20.899Z,7.81
2023-01-13T08:18:20.742Z,7.74
2023-01-13T08:19:20.739Z,7.81
2023-01-13T08:20:20.694Z,7.79
2023-01-13T08:21:20.695Z,7.62
2023-01-13T08:22:20.697Z,7.69
2023-01-13T08:23:20.656Z,7.77
2023-01-13T08:24:20.652Z,8.00
2023-01-13T08:25:20.595Z,7.77
2023-01-13T08:26:20.583Z,7.69
2023-01-13T08:27:20.580Z,7.73
2023-01-13T08:28:20.557Z,7.69
2023-01-13T08:29:20.568Z,7.50
2023-01-13T08:30:20.543Z,7.70
2023-01-13T08:31:20.643Z,7.63
2023-01-13T08:32:20.494Z,7.71
2023-01-13T08:33:20.508Z,7.74
2023-01-13T08:34:20.502Z,7.77
2023-01-13T08:35:20.435Z,7.71
2023-01-13T08:36:20.415Z,7.73
2023-01-13T08:37:20.398Z,7.73
2023-01-13T08:38:20.391Z,7.91
2023-01-13T08:39:20.437Z,8.27
2023-01-13T08:40:20.344Z,8.31
2023-01-13T08:41:20.331Z,8.68
2023-01-13T08:42:20.306Z,9.04
2023-01-13T08:43:20.309Z,9.56
2023-01-13T08:44:20.316Z,9.96
2023-01-13T08:45:20.278Z,10.36
2023-01-13T08:46:20.329Z,10.95
2023-01-13T08:47:20.300Z,11.45
2023-01-13T08:48:20.248Z,11.98
2023-01-13T08:49:20.233Z,12.31
2023-01-13T08:50:20.192Z,12.48
2023-01-13T08:51:20.209Z,12.16
2023-01-13T08:52:20.175Z,12.04
2023-01-13T08:53:20.180Z,12.85
2023-01-13T08:54:20.172Z,13.28
2023-01-13T08:55:20.108Z,13.28
2023-01-13T08:56:21.170Z,12.98
2023-01-13T08:57:20.149Z,13.65
2023-01-13T08:58:20.042Z,14.11
2023-01-13T08:59:20.081Z,14.38
2023-01-13T09:00:20.033Z,14.35
2023-01-13T09:01:20.130Z,14.69
2023-01-13T09:02:20.183Z,14.39
2023-01-13T09:03:19.975Z,13.66
2023-01-13T09:04:20.019Z,13.17
2023-01-13T09:05:19.923Z,12.88
2023-01-13T09:06:19.936Z,12.62
2023-01-13T09:07:19.901Z,12.37
2023-01-13T09:08:19.883Z,12.15
2023-01-13T09:09:19.890Z,12.03
2023-01-13T09:10:19.859Z,11.75
2023-01-13T09:11:19.841Z,11.77
2023-01-13T09:12:19.836Z,11.64
2023-01-13T09:13:19.786Z,11.63
2023-01-13T09:14:19.810Z,11.41
2023-01-13T09:15:19.793Z,11.38
2023-01-13T09:16:19.827Z,11.21
2023-01-13T09:17:19.720Z,11.03
2023-01-13T09:18:19.713Z,11.09
2023-01-13T09:19:19.720Z,10.78
2023-01-13T09:20:19.682Z,10.62
2023-01-13T09:21:19.651Z,10.46
2023-01-13T09:22:19.634Z,10.42
2023-01-13T09:23:19.622Z,10.31
2023-01-13T09:24:19.642Z,10.06
2023-01-13T09:25:19.593Z,9.91
2023-01-13T09:26:19.571Z,9.77
2023-01-13T09:27:19.577Z,9.71
2023-01-13T09:28:19.540Z,9.62
2023-01-13T09:29:19.583Z,9.58
2023-01-13T09:30:19.512Z,9.50
2023-01-13T09:31:19.581Z,9.48
2023-01-13T09:32:19.470Z,9.91
2023-01-13T09:33:19.457Z,9.78
2023-01-13T09:34:19.434Z,10.90
2023-01-13T09:35:19.452Z,11.08
2023-01-13T09:36:19.403Z,11.57
2023-01-13T09:37:19.384Z,11.39
2023-01-13T09:38:19.371Z,11.11
2023-01-13T09:39:19.462Z,11.03
2023-01-13T09:40:19.357Z,10.72
2023-01-13T09:41:19.326Z,11.23
2023-01-13T09:42:19.328Z,11.17
2023-01-13T09:43:19.284Z,10.95
2023-01-13T09:44:19.273Z,10.93
2023-01-13T09:45:19.281Z,10.68
2023-01-13T09:46:19.260Z,10.46
2023-01-13T09:47:19.238Z,10.49
2023-01-13T09:48:19.202Z,10.28
2023-01-13T09:49:19.181Z,9.93
2023-01-13T09:50:19.225Z,9.95
2023-01-13T09:51:19.250Z,9.88
2023-01-13T09:52:19.145Z,9.56
2023-01-13T09:53:19.159Z,9.32
2023-01-13T09:54:19.134Z,9.19
2023-01-13T09:55:19.149Z,9.03
2023-01-13T09:56:19.077Z,9.08
2023-01-13T09:57:19.064Z,8.96
2023-01-13T09:58:19.042Z,8.80
2023-01-13T09:59:19.021Z,8.80
2023-01-13T10:00:19.021Z,8.70
2023-01-13T10:01:20.109Z,8.83
2023-01-13T10:02:18.984Z,8.79
2023-01-13T10:03:18.976Z,8.80
2023-01-13T10:04:19.030Z,8.82
2023-01-13T10:05:18.961Z,8.76
2023-01-13T10:06:18.913Z,8.76
2023-01-13T10:07:19.208Z,8.73
2023-01-13T10:08:18.872Z,8.61
2023-01-13T10:09:18.855Z,8.58
2023-01-13T10:10:18.870Z,8.46
2023-01-13T10:11:18.845Z,8.40
2023-01-13T10:12:18.819Z,8.45
2023-01-13T10:13:18.801Z,8.39
2023-01-13T10:14:18.782Z,8.49
2023-01-13T10:15:18.785Z,8.40
2023-01-13T10:16:18.892Z,8.40
2023-01-13T10:17:18.735Z,8.49
2023-01-13T10:18:18.712Z,8.65
2023-01-13T10:19:18.701Z,8.60
2023-01-13T10:20:18.724Z,8.52
2023-01-13T10:21:18.656Z,8.46
2023-01-13T10:22:18.660Z,8.54
2023-01-13T10:23:18.662Z,8.39
2023-01-13T10:24:18.612Z,8.45
2023-01-13T10:25:18.630Z,8.60
2023-01-13T10:26:18.783Z,8.50
2023-01-13T10:27:18.563Z,8.49
2023-01-13T10:28:19.368Z,8.49
2023-01-13T10:29:19.537Z,8.47
2023-01-13T10:30:18.548Z,8.46
2023-01-13T10:31:18.591Z,8.31
2023-01-13T10:32:18.492Z,8.47
2023-01-13T10:33:18.457Z,8.46
2023-01-13T10:34:18.451Z,8.45
2023-01-13T10:35:18.469Z,8.34
2023-01-13T10:36:18.459Z,8.57
2023-01-13T10:37:18.431Z,8.54
2023-01-13T10:38:18.462Z,8.63
2023-01-13T10:39:18.401Z,8.58
2023-01-13T10:40:18.502Z,8.57
2023-01-13T10:41:18.375Z,8.61
2023-01-13T10:42:18.339Z,8.76
2023-01-13T10:43:18.303Z,8.65
2023-01-13T10:44:18.347Z,8.80
2023-01-13T10:45:18.313Z,8.83
2023-01-13T10:46:18.297Z,8.75
2023-01-13T10:47:18.248Z,8.76
2023-01-13T10:48:18.239Z,8.83
2023-01-13T10:49:18.201Z,8.89
2023-01-13T10:50:18.292Z,8.75
2023-01-13T10:51:18.180Z,8.78
2023-01-13T10:52:18.186Z,8.75
2023-01-13T10:53:18.157Z,8.71
2023-01-13T10:54:18.143Z,8.60
2023-01-13T10:55:18.135Z,8.67
2023-01-13T10:56:18.076Z,8.54
2023-01-13T10:57:18.069Z,8.60
2023-01-13T10:58:18.148Z,8.49
2023-01-13T10:59:18.014Z,8.47
2023-01-13T11:00:19.055Z,8.32
2023-01-13T11:01:18.087Z,8.27
2023-01-13T11:02:24.896Z,8.27
2023-01-13T11:03:20.016Z,8.29
2023-01-13T11:04:17.939Z,8.36
2023-01-13T11:05:17.980Z,8.25
2023-01-13T11:06:17.902Z,8.34
2023-01-13T11:07:17.902Z,8.31
2023-01-13T11:08:17.925Z,8.39
2023-01-13T11:09:17.882Z,8.43
2023-01-13T11:10:17.900Z,8.45
2023-01-13T11:11:17.896Z,8.47
2023-01-13T11:12:17.804Z,8.46
2023-01-13T11:13:17.787Z,8.43
2023-01-13T11:14:17.766Z,8.37
2023-01-13T11:15:17.791Z,8.27
2023-01-13T11:16:17.754Z,8.12
2023-01-13T11:17:17.722Z,8.12
2023-01-13T11:18:17.715Z,8.12
2023-01-13T11:19:17.704Z,8.20
2023-01-13T11:20:17.837Z,8.09
2023-01-13T11:21:17.652Z,8.09
2023-01-13T11:22:17.643Z,8.20
2023-01-13T11:23:17.653Z,8.14
2023-01-13T11:24:17.616Z,8.20
2023-01-13T11:25:17.638Z,8.25
2023-01-13T11:26:17.575Z,8.28
2023-01-13T11:27:17.596Z,8.31
2023-01-13T11:28:17.549Z,8.37
2023-01-13T11:29:17.553Z,8.36
2023-01-13T11:30:17.564Z,8.34
2023-01-13T11:31:17.556Z,8.42
2023-01-13T11:32:17.480Z,8.34
2023-01-13T11:33:17.474Z,8.39
2023-01-13T11:34:17.442Z,8.34
2023-01-13T11:35:17.460Z,8.28
2023-01-13T11:36:20.205Z,8.18
2023-01-13T11:37:17.414Z,8.32
2023-01-13T11:38:17.410Z,8.32
2023-01-13T11:39:17.378Z,8.39
2023-01-13T11:40:17.372Z,8.39
2023-01-13T11:41:17.321Z,8.46
2023-01-13T11:42:17.294Z,8.31
2023-01-13T11:43:17.330Z,8.54
2023-01-13T11:44:17.277Z,8.49
2023-01-13T11:45:17.305Z,8.52
2023-01-13T11:46:17.339Z,8.58
2023-01-13T11:47:17.222Z,8.52
2023-01-13T11:48:17.215Z,8.82
2023-01-13T11:49:17.179Z,8.83
2023-01-13T11:50:17.308Z,8.80
2023-01-13T11:51:17.166Z,8.79
2023-01-13T11:52:17.142Z,8.65
2023-01-13T11:53:17.126Z,8.78
2023-01-13T11:54:17.110Z,8.73
2023-01-13T11:55:17.122Z,8.60
2023-01-13T11:56:49.448Z,8.25
2023-01-13T11:57:17.049Z,8.34
2023-01-13T11:58:17.040Z,8.21
2023-01-13T11:59:17.031Z,8.34
2023-01-13T12:00:17.056Z,8.28
2023-01-13T12:01:17.043Z,8.45
2023-01-13T12:02:17.049Z,8.39
2023-01-13T12:03:17.014Z,8.47
2023-01-13T12:04:16.952Z,8.54
2023-01-13T12:05:16.964Z,8.70
2023-01-13T12:06:16.905Z,8.73
2023-01-13T12:07:16.888Z,8.82
2023-01-13T12:08:16.920Z,8.78
2023-01-13T12:09:16.856Z,8.88
2023-01-13T12:10:16.857Z,9.01
2023-01-13T12:11:16.819Z,9.16
2023-01-13T12:12:16.861Z,9.15
2023-01-13T12:13:16.797Z,9.06
2023-01-13T12:14:16.815Z,9.08
2023-01-13T12:15:16.800Z,9.10
2023-01-13T12:16:16.795Z,9.16
2023-01-13T12:17:16.754Z,9.04
2023-01-13T12:18:16.705Z,9.08
2023-01-13T12:19:16.693Z,9.16
2023-01-13T12:20:16.716Z,9.35
2023-01-13T12:21:16.647Z,9.44
2023-01-13T12:22:16.650Z,9.50
2023-01-13T12:23:16.643Z,9.55
2023-01-13T12:24:16.652Z,9.65
2023-01-13T12:25:16.615Z,9.77
2023-01-13T12:26:16.611Z,9.81
2023-01-13T12:27:16.628Z,9.92
2023-01-13T12:28:16.644Z,9.93
2023-01-13T12:29:16.516Z,9.89
2023-01-13T12:30:16.701Z,9.89
2023-01-13T12:31:16.498Z,9.70
2023-01-13T12:32:16.456Z,9.75
2023-01-13T12:33:18.686Z,9.67
2023-01-13T12:34:17.478Z,9.70
2023-01-13T12:35:16.464Z,9.55
2023-01-13T12:36:16.416Z,9.48
2023-01-13T12:37:16.393Z,9.56
2023-01-13T12:38:16.363Z,9.52
2023-01-13T12:39:16.339Z,9.44
2023-01-13T12:40:16.343Z,9.34
2023-01-13T12:41:16.333Z,9.37
2023-01-13T12:42:16.324Z,9.32
2023-01-13T12:43:16.296Z,9.26
2023-01-13T12:44:16.273Z,9.24
2023-01-13T12:45:18.446Z,9.24
2023-01-13T12:46:16.347Z,9.40
2023-01-13T12:47:16.214Z,9.37
2023-01-13T12:48:16.193Z,9.31
2023-01-13T12:49:16.251Z,9.45
2023-01-13T12:50:16.157Z,9.32
2023-01-13T12:51:18.194Z,9.31
2023-01-13T12:52:16.128Z,9.13
2023-01-13T12:53:16.128Z,8.96
2023-01-13T12:54:16.121Z,8.91
2023-01-13T12:55:16.129Z,8.82
2023-01-13T12:56:16.113Z,8.83
2023-01-13T12:57:16.051Z,8.91
2023-01-13T12:58:16.032Z,8.88
2023-01-13T12:59:16.014Z,8.89
2023-01-13T13:00:16.003Z,8.89
2023-01-13T13:01:16.080Z,8.78
2023-01-13T13:02:16.145Z,8.80
2023-01-13T13:03:18.538Z,8.79
2023-01-13T13:04:15.939Z,8.73
2023-01-13T13:05:15.908Z,8.73
2023-01-13T13:06:15.997Z,8.71
2023-01-13T13:07:15.956Z,8.65
2023-01-13T13:08:15.860Z,8.80
2023-01-13T13:09:15.888Z,8.88
2023-01-13T13:10:15.831Z,8.97
2023-01-13T13:11:15.892Z,8.83
2023-01-13T13:12:15.798Z,9.08
2023-01-13T13:13:15.779Z,9.26
2023-01-13T13:14:15.766Z,9.35
2023-01-13T13:15:15.869Z,9.22
2023-01-13T13:16:15.752Z,9.31